createdAt,value
2023-04-16T00:02:04.934Z,100173.47
2023-04-16T00:04:32.098Z,100168.88
2023-04-16T00:06:59.078Z,100165.03
2023-04-16T00:09:26.152Z,100164.38
2023-04-16T00:11:53.150Z,100169.06
2023-04-16T00:14:20.279Z,100166.22
2023-04-16T00:16:47.357Z,100176.31
2023-04-16T00:19:14.431Z,100172.38
2023-04-16T00:21:41.450Z,100165.31
2023-04-16T00:24:08.569Z,100169.56
2023-04-16T00:26:35.550Z,100172.59
2023-04-16T00:29:02.638Z,100172.88
2023-04-16T00:31:32.456Z,100164.63
2023-04-16T00:34:00.131Z,100169.16
2023-04-16T00:36:28.443Z,100163.28
2023-04-16T00:38:56.681Z,100173.72
2023-04-16T00:41:23.937Z,100181.06
2023-04-16T00:44:11.353Z,100178.75
2023-04-16T00:46:48.927Z,100170.25
2023-04-16T00:49:16.141Z,100176.25
2023-04-16T00:51:43.309Z,100174.53
2023-04-16T00:54:10.660Z,100183.53
2023-04-16T00:56:37.933Z,100182.66
2023-04-16T00:59:05.522Z,100180.47
2023-04-16T01:01:32.553Z,100179.06
2023-04-16T01:03:59.720Z,100181.28
2023-04-16T01:06:26.841Z,100181.09
2023-04-16T01:08:53.910Z,100187.44
2023-04-16T01:11:21.185Z,100181.41
2023-04-16T01:13:48.192Z,100186.69
2023-04-16T01:16:15.499Z,100176.47
2023-04-16T01:18:42.546Z,100183.69
2023-04-16T01:21:09.817Z,100185.25
2023-04-16T01:23:36.829Z,100193.00
2023-04-16T01:26:03.884Z,100177.41
2023-04-16T01:28:30.959Z,100177.41
2023-04-16T01:30:58.164Z,100183.13
2023-04-16T01:33:25.196Z,100179.44
2023-04-16T01:35:52.206Z,100185.47
2023-04-16T01:38:19.176Z,100183.75
2023-04-16T01:40:46.191Z,100182.09
2023-04-16T01:43:13.206Z,100176.66
2023-04-16T01:45:40.425Z,100184.31
2023-04-16T01:48:08.529Z,100182.19
2023-04-16T01:50:35.608Z,100184.19
2023-04-16T01:53:05.050Z,100186.81
2023-04-16T01:55:34.067Z,100182.34
2023-04-16T01:58:01.050Z,100183.41
2023-04-16T02:00:28.139Z,100183.16
2023-04-16T02:02:55.403Z,100187.41
2023-04-16T02:05:22.513Z,100187.28
2023-04-16T02:07:49.579Z,100184.84
2023-04-16T02:10:16.647Z,100193.06
2023-04-16T02:12:43.616Z,100203.81
2023-04-16T02:15:11.242Z,100202.41
2023-04-16T02:17:38.253Z,100198.72
2023-04-16T02:20:08.254Z,100204.47
2023-04-16T02:22:35.575Z,100199.34
2023-04-16T02:25:02.544Z,100201.34
2023-04-16T02:27:29.559Z,100208.84
2023-04-16T02:29:56.583Z,100209.63
2023-04-16T02:32:23.690Z,100207.72
2023-04-16T02:34:50.958Z,100210.00
2023-04-16T02:37:17.961Z,100205.06
2023-04-16T02:39:45.168Z,100205.69
2023-04-16T02:42:12.165Z,100213.00
2023-04-16T02:44:39.149Z,100215.69
2023-04-16T02:47:06.105Z,100211.03
2023-04-16T02:49:33.213Z,100220.38
2023-04-16T02:52:00.289Z,100220.25
2023-04-16T02:54:27.285Z,100228.97
2023-04-16T02:56:54.292Z,100225.88
2023-04-16T02:59:21.274Z,100231.47
2023-04-16T03:01:48.440Z,100235.56
2023-04-16T03:04:15.868Z,100234.47
2023-04-16T03:06:42.925Z,100236.09
2023-04-16T03:09:10.090Z,100244.28
2023-04-16T03:11:37.251Z,100248.78
2023-04-16T03:14:04.351Z,100245.94
2023-04-16T03:16:31.483Z,100253.28
2023-04-16T03:18:58.462Z,100250.19
2023-04-16T03:21:25.912Z,100234.50
2023-04-16T03:23:53.963Z,100244.00
2023-04-16T03:26:20.931Z,100245.69
2023-04-16T03:28:47.949Z,100239.66
2023-04-16T03:31:14.987Z,100251.69
2023-04-16T03:33:42.650Z,100242.72
2023-04-16T03:36:10.140Z,100244.19
2023-04-16T03:38:37.115Z,100241.47
2023-04-16T03:41:04.186Z,100247.75
2023-04-16T03:43:31.139Z,100250.91
2023-04-16T03:45:58.158Z,100256.03
2023-04-16T03:48:25.526Z,100252.25
2023-04-16T03:50:52.546Z,100252.31
2023-04-16T03:53:19.476Z,100247.69
2023-04-16T03:55:51.461Z,100259.00
2023-04-16T03:58:19.333Z,100258.06
2023-04-16T04:00:46.514Z,100262.88
2023-04-16T04:03:17.147Z,100249.16
2023-04-16T04:05:44.384Z,100260.59
2023-04-16T04:08:11.473Z,100260.34
2023-04-16T04:10:38.679Z,100258.81
2023-04-16T04:13:07.318Z,100261.91
2023-04-16T04:15:34.454Z,100270.50
2023-04-16T04:18:01.739Z,100269.06
2023-04-16T04:20:28.848Z,100274.06
2023-04-16T04:22:55.941Z,100265.00
2023-04-16T04:25:23.033Z,100275.59
2023-04-16T04:27:50.045Z,100279.59
2023-04-16T04:30:17.038Z,100275.31
2023-04-16T04:32:44.096Z,100282.38
2023-04-16T04:35:11.178Z,100278.34
2023-04-16T04:37:38.205Z,100283.53
2023-04-16T04:40:06.106Z,100281.94
2023-04-16T04:42:33.058Z,100283.63
2023-04-16T04:45:00.054Z,100284.84
2023-04-16T04:47:27.207Z,100285.75
2023-04-16T04:49:54.288Z,100290.97
2023-04-16T04:52:21.308Z,100299.78
2023-04-16T04:54:48.294Z,100297.81
2023-04-16T04:57:15.272Z,100303.66
2023-04-16T04:59:42.239Z,100297.75
2023-04-16T05:02:09.336Z,100305.47
2023-04-16T05:04:36.375Z,100306.28
2023-04-16T05:07:03.553Z,100299.84
2023-04-16T05:09:30.928Z,100308.47
2023-04-16T05:11:58.003Z,100310.88
2023-04-16T05:14:25.033Z,100316.81
2023-04-16T05:16:52.028Z,100322.75
2023-04-16T05:19:19.029Z,100320.78
2023-04-16T05:21:46.036Z,100315.00
2023-04-16T05:24:14.908Z,100305.78
2023-04-16T05:26:42.173Z,100319.91
2023-04-16T05:29:09.373Z,100317.13
2023-04-16T05:31:36.628Z,100325.91
2023-04-16T05:34:03.665Z,100331.75
2023-04-16T05:36:30.764Z,100330.31
2023-04-16T05:38:57.790Z,100327.13
2023-04-16T05:41:24.883Z,100336.09
2023-04-16T05:43:51.851Z,100334.78
2023-04-16T05:46:18.871Z,100325.81
2023-04-16T05:48:46.127Z,100338.72
2023-04-16T05:51:13.171Z,100335.81
2023-04-16T05:53:41.026Z,100334.56
2023-04-16T05:56:08.599Z,100338.03
2023-04-16T05:58:35.631Z,100340.38
2023-04-16T06:01:03.421Z,100345.03
2023-04-16T06:03:30.467Z,100350.78
2023-04-16T06:05:57.751Z,100357.91
2023-04-16T06:08:24.807Z,100346.47
2023-04-16T06:10:51.822Z,100356.03
2023-04-16T06:13:19.024Z,100357.75
2023-04-16T06:15:46.083Z,100371.16
2023-04-16T06:18:13.160Z,100370.00
2023-04-16T06:20:40.600Z,100370.25
2023-04-16T06:23:07.560Z,100370.19
2023-04-16T06:25:34.580Z,100364.06
2023-04-16T06:28:01.591Z,100369.88
2023-04-16T06:30:28.708Z,100377.16
2023-04-16T06:32:55.836Z,100366.72
2023-04-16T06:35:22.882Z,100376.72
2023-04-16T06:37:49.901Z,100382.34
2023-04-16T06:40:17.115Z,100372.44
2023-04-16T06:42:45.503Z,100377.25
2023-04-16T06:45:14.046Z,100379.97
2023-04-16T06:47:41.178Z,100370.69
2023-04-16T06:50:08.737Z,100369.81
2023-04-16T06:52:35.962Z,100369.53
2023-04-16T06:55:03.282Z,100374.75
2023-04-16T06:57:30.322Z,100387.09
2023-04-16T06:59:57.309Z,100384.25
2023-04-16T07:02:24.807Z,100385.47
2023-04-16T07:04:52.521Z,100383.16
2023-04-16T07:07:19.560Z,100381.72
2023-04-16T07:09:46.558Z,100382.47
2023-04-16T07:12:13.649Z,100378.97
2023-04-16T07:14:41.125Z,100380.91
2023-04-16T07:17:08.108Z,100389.03
2023-04-16T07:19:35.604Z,100387.97
2023-04-16T07:22:02.725Z,100382.44
2023-04-16T07:24:29.812Z,100389.59
2023-04-16T07:26:56.972Z,100401.88
2023-04-16T07:29:23.978Z,100409.78
2023-04-16T07:31:51.450Z,100412.22
2023-04-16T07:34:18.574Z,100414.59
2023-04-16T07:36:45.651Z,100412.06
2023-04-16T07:39:13.250Z,100419.00
2023-04-16T07:41:41.219Z,100418.69
2023-04-16T07:44:09.426Z,100422.13
2023-04-16T07:46:46.504Z,100429.84
2023-04-16T07:49:14.993Z,100428.53
2023-04-16T07:51:42.189Z,100433.16
2023-04-16T07:54:09.978Z,100427.44
2023-04-16T07:56:36.985Z,100439.69
2023-04-16T07:59:14.918Z,100437.94
2023-04-16T08:01:46.130Z,100441.16
2023-04-16T08:04:14.320Z,100443.16
2023-04-16T08:06:41.442Z,100435.56
2023-04-16T08:09:08.739Z,100451.56
2023-04-16T08:11:36.082Z,100451.13
2023-04-16T08:14:03.070Z,100451.13
2023-04-16T08:16:30.069Z,100458.28
2023-04-16T08:18:57.051Z,100453.84
2023-04-16T08:21:24.030Z,100459.78
2023-04-16T08:23:51.431Z,100464.63
2023-04-16T08:26:18.362Z,100466.13
2023-04-16T08:28:45.509Z,100462.16
2023-04-16T08:31:12.688Z,100453.44
2023-04-16T08:33:41.029Z,100461.75
2023-04-16T08:36:08.129Z,100478.78
2023-04-16T08:38:35.148Z,100467.19
2023-04-16T08:41:07.254Z,100463.03
2023-04-16T08:43:37.640Z,100466.22
2023-04-16T08:46:06.858Z,100465.25
2023-04-16T08:48:35.237Z,100471.50
2023-04-16T08:51:03.008Z,100482.31
2023-04-16T08:53:53.303Z,100482.19
2023-04-16T08:56:24.736Z,100486.19
2023-04-16T08:58:54.858Z,100481.59
2023-04-16T09:01:22.294Z,100484.13
2023-04-16T09:03:49.908Z,100475.28
2023-04-16T09:06:18.305Z,100490.09
2023-04-16T09:08:48.836Z,100494.66
2023-04-16T09:11:18.545Z,100486.19
2023-04-16T09:13:47.518Z,100492.50
2023-04-16T09:16:15.528Z,100496.44
2023-04-16T09:18:42.680Z,100496.50
2023-04-16T09:21:13.661Z,100500.72
2023-04-16T09:23:41.941Z,100493.09
2023-04-16T09:26:09.066Z,100493.16
2023-04-16T09:28:47.163Z,100495.53
2023-04-16T09:31:19.481Z,100501.31
2023-04-16T09:34:09.114Z,100498.94
2023-04-16T09:36:36.949Z,100511.22
2023-04-16T09:39:04.354Z,100515.72
2023-04-16T09:41:36.149Z,100516.06
2023-04-16T09:44:05.349Z,100512.34
2023-04-16T09:46:36.258Z,100519.22
2023-04-16T09:49:15.886Z,100518.88
2023-04-16T09:51:50.980Z,100523.88
2023-04-16T09:54:19.589Z,100525.50
2023-04-16T09:56:47.124Z,100519.56
2023-04-16T09:59:21.171Z,100511.53
2023-04-16T10:02:14.218Z,100523.25
2023-04-16T10:04:53.100Z,100522.91
2023-04-16T10:07:21.476Z,100528.09
2023-04-16T10:09:52.642Z,100540.28
2023-04-16T10:12:20.720Z,100525.97
2023-04-16T10:14:49.998Z,100528.88
2023-04-16T10:17:17.357Z,100526.81
2023-04-16T10:19:46.243Z,100526.66
2023-04-16T10:22:13.797Z,100524.19
2023-04-16T10:24:42.253Z,100534.31
2023-04-16T10:27:09.264Z,100533.75
2023-04-16T10:29:37.005Z,100541.28
2023-04-16T10:32:04.363Z,100545.88
2023-04-16T10:34:32.217Z,100548.63
2023-04-16T10:36:59.318Z,100549.00
2023-04-16T10:39:29.503Z,100547.28
2023-04-16T10:42:13.111Z,100552.72
2023-04-16T10:44:44.405Z,100552.47
2023-04-16T10:47:13.969Z,100560.94
2023-04-16T10:49:43.601Z,100562.47
2023-04-16T10:52:19.111Z,100553.75
2023-04-16T10:54:48.378Z,100563.47
2023-04-16T10:57:20.632Z,100561.75
2023-04-16T10:59:49.232Z,100560.75
2023-04-16T11:02:18.807Z,100557.97
2023-04-16T11:04:48.526Z,100558.53
2023-04-16T11:07:20.205Z,100553.50
2023-04-16T11:09:53.426Z,100561.16
2023-04-16T11:12:37.432Z,100563.88
2023-04-16T11:15:11.327Z,100559.31
2023-04-16T11:17:43.079Z,100556.41
2023-04-16T11:20:22.918Z,100558.84
2023-04-16T11:22:51.614Z,100563.03
2023-04-16T11:25:22.800Z,100573.34
2023-04-16T11:27:52.103Z,100566.00
2023-04-16T11:30:29.418Z,100567.03
2023-04-16T11:32:56.651Z,100573.84
2023-04-16T11:35:24.279Z,100576.75
2023-04-16T11:37:57.169Z,100564.28
2023-04-16T11:40:25.236Z,100564.50
2023-04-16T11:42:52.244Z,100567.41
2023-04-16T11:45:19.530Z,100566.34
2023-04-16T11:47:53.406Z,100572.91
2023-04-16T11:50:23.518Z,100575.03
2023-04-16T11:52:53.632Z,100564.38
2023-04-16T11:55:21.665Z,100573.13
2023-04-16T11:57:50.257Z,100575.03
2023-04-16T12:00:19.170Z,100579.06
2023-04-16T12:02:53.939Z,100566.22
2023-04-16T12:05:40.798Z,100571.09
2023-04-16T12:08:12.357Z,100554.09
2023-04-16T12:10:55.486Z,100556.34
2023-04-16T12:13:22.895Z,100562.28
2023-04-16T12:15:53.698Z,100559.38
2023-04-16T12:18:23.792Z,100555.50
2023-04-16T12:20:51.402Z,100553.50
2023-04-16T12:23:30.125Z,100545.66
2023-04-16T12:26:05.059Z,100552.00
2023-04-16T12:28:38.314Z,100542.63
2023-04-16T12:31:06.367Z,100550.41
2023-04-16T12:33:33.567Z,100554.97
2023-04-16T12:36:01.782Z,100555.63
2023-04-16T12:38:29.294Z,100555.75
2023-04-16T12:40:57.749Z,100552.97
2023-04-16T12:43:25.627Z,100541.41
2023-04-16T12:45:52.792Z,100544.00
2023-04-16T12:48:19.811Z,100546.00
2023-04-16T12:50:46.943Z,100542.94
2023-04-16T12:53:13.914Z,100545.66
2023-04-16T12:55:40.943Z,100539.63
2023-04-16T12:58:10.572Z,100539.31
2023-04-16T13:00:40.394Z,100539.69
2023-04-16T13:03:07.875Z,100542.84
2023-04-16T13:05:35.088Z,100539.34
2023-04-16T13:08:02.329Z,100541.25
2023-04-16T13:10:29.327Z,100546.38
2023-04-16T13:12:56.979Z,100542.41
2023-04-16T13:15:24.063Z,100541.00
2023-04-16T13:17:51.157Z,100538.34
2023-04-16T13:20:18.253Z,100532.34
2023-04-16T13:22:45.269Z,100534.50
2023-04-16T13:25:12.270Z,100537.09
2023-04-16T13:27:39.279Z,100539.59
2023-04-16T13:30:07.771Z,100536.41
2023-04-16T13:32:34.876Z,100533.63
2023-04-16T13:35:02.001Z,100536.28
2023-04-16T13:37:28.963Z,100542.22
2023-04-16T13:39:56.634Z,100540.47
2023-04-16T13:42:23.636Z,100543.84
2023-04-16T13:44:54.186Z,100547.13
2023-04-16T13:47:21.717Z,100545.22
2023-04-16T13:49:49.002Z,100555.59
2023-04-16T13:52:16.119Z,100550.72
2023-04-16T13:54:43.104Z,100547.25
2023-04-16T13:57:10.974Z,100540.34
2023-04-16T13:59:38.314Z,100544.09
2023-04-16T14:02:05.597Z,100539.69
2023-04-16T14:04:32.609Z,100538.66
2023-04-16T14:06:59.609Z,100541.50
2023-04-16T14:09:27.297Z,100542.44
2023-04-16T14:11:55.330Z,100531.16
2023-04-16T14:14:22.399Z,100537.16
2023-04-16T14:16:49.575Z,100532.81
2023-04-16T14:19:16.675Z,100535.75
2023-04-16T14:21:43.696Z,100529.47
2023-04-16T14:24:10.761Z,100540.69
2023-04-16T14:26:37.783Z,100537.97
2023-04-16T14:29:06.299Z,100535.81
2023-04-16T14:31:33.586Z,100539.88
2023-04-16T14:34:00.749Z,100539.66
2023-04-16T14:36:28.020Z,100545.66
2023-04-16T14:38:55.086Z,100539.03
2023-04-16T14:41:22.057Z,100548.72
2023-04-16T14:43:49.100Z,100548.72
2023-04-16T14:46:19.411Z,100549.03
2023-04-16T14:48:46.578Z,100544.19
2023-04-16T14:51:13.567Z,100548.44
2023-04-16T14:53:40.762Z,100546.94
2023-04-16T14:56:07.786Z,100550.50
2023-04-16T14:58:37.299Z,100550.50
2023-04-16T15:01:06.174Z,100555.66
2023-04-16T15:03:33.477Z,100556.75
2023-04-16T15:06:01.895Z,100561.81
2023-04-16T15:08:28.947Z,100558.59
2023-04-16T15:10:55.954Z,100565.75
2023-04-16T15:13:22.940Z,100564.56
2023-04-16T15:15:50.270Z,100559.81
2023-04-16T15:18:17.377Z,100567.72
2023-04-16T15:20:44.732Z,100556.06
2023-04-16T15:23:11.748Z,100560.59
2023-04-16T15:25:38.731Z,100567.97
2023-04-16T15:28:06.520Z,100561.69
2023-04-16T15:30:33.685Z,100564.03
2023-04-16T15:33:01.095Z,100569.38
2023-04-16T15:35:28.324Z,100572.34
2023-04-16T15:37:55.480Z,100573.06
2023-04-16T15:40:22.628Z,100564.50
2023-04-16T15:42:49.620Z,100574.41
2023-04-16T15:45:16.904Z,100572.13
2023-04-16T15:47:47.949Z,100574.22
2023-04-16T15:50:15.335Z,100567.06
2023-04-16T15:52:42.484Z,100568.97
2023-04-16T15:55:10.125Z,100567.25
2023-04-16T15:57:37.111Z,100570.59
2023-04-16T16:00:13.481Z,100574.56
2023-04-16T16:02:41.892Z,100570.00
2023-04-16T16:05:14.271Z,100567.16
2023-04-16T16:07:42.709Z,100578.22
2023-04-16T16:10:11.598Z,100574.03
2023-04-16T16:12:39.535Z,100575.84
2023-04-16T16:15:07.717Z,100576.50
2023-04-16T16:17:34.830Z,100588.03
2023-04-16T16:20:01.968Z,100592.38
2023-04-16T16:22:29.994Z,100600.09
2023-04-16T16:24:57.948Z,100597.09
2023-04-16T16:27:25.065Z,100607.94
2023-04-16T16:29:52.268Z,100606.94
2023-04-16T16:32:19.400Z,100600.47
2023-04-16T16:34:46.422Z,100611.75
2023-04-16T16:37:13.457Z,100608.47
2023-04-16T16:39:40.551Z,100615.09
2023-04-16T16:42:09.236Z,100610.50
2023-04-16T16:44:36.751Z,100611.47
2023-04-16T16:47:03.995Z,100610.81
2023-04-16T16:49:31.030Z,100620.63
2023-04-16T16:51:58.050Z,100619.63
2023-04-16T16:54:25.304Z,100617.19
2023-04-16T16:56:53.142Z,100624.66
2023-04-16T16:59:20.306Z,100632.94
2023-04-16T17:01:47.290Z,100620.94
2023-04-16T17:04:14.568Z,100633.91
2023-04-16T17:06:41.768Z,100637.44
2023-04-16T17:09:09.360Z,100633.72
2023-04-16T17:11:36.782Z,100638.78
2023-04-16T17:14:03.848Z,100637.06
2023-04-16T17:16:30.897Z,100640.31
2023-04-16T17:18:59.317Z,100650.47
2023-04-16T17:21:26.294Z,100649.16
2023-04-16T17:23:54.519Z,100646.91
2023-04-16T17:26:22.420Z,100650.41
2023-04-16T17:28:49.695Z,100654.09
2023-04-16T17:31:16.971Z,100642.13
2023-04-16T17:33:44.478Z,100659.06
2023-04-16T17:36:11.653Z,100665.34
2023-04-16T17:38:38.701Z,100667.09
2023-04-16T17:41:05.757Z,100653.81
2023-04-16T17:43:32.774Z,100669.94
2023-04-16T17:45:59.832Z,100674.47
2023-04-16T17:48:26.857Z,100680.22
2023-04-16T17:50:53.945Z,100674.47
2023-04-16T17:53:20.998Z,100675.53
2023-04-16T17:55:56.515Z,100674.94
2023-04-16T17:58:26.366Z,100673.75
2023-04-16T18:00:53.351Z,100682.09
2023-04-16T18:03:22.102Z,100686.47
2023-04-16T18:05:49.386Z,100687.16
2023-04-16T18:08:16.559Z,100692.22
2023-04-16T18:10:43.574Z,100682.41
2023-04-16T18:13:10.589Z,100690.13
2023-04-16T18:15:38.398Z,100690.81
2023-04-16T18:18:06.005Z,100684.16
2023-04-16T18:20:33.173Z,100688.75
2023-04-16T18:23:01.258Z,100699.88
2023-04-16T18:25:34.433Z,100699.22
2023-04-16T18:28:03.825Z,100708.66
2023-04-16T18:30:31.293Z,100704.13
2023-04-16T18:35:28.967Z,100704.66
2023-04-16T18:37:55.934Z,100715.56
2023-04-16T18:40:25.208Z,100697.84
2023-04-16T18:42:52.185Z,100711.22
2023-04-16T18:45:21.940Z,100711.03
2023-04-16T18:47:50.317Z,100711.38
2023-04-16T18:50:17.716Z,100716.66
2023-04-16T18:52:44.756Z,100710.69
2023-04-16T18:55:11.744Z,100706.25
2023-04-16T18:57:38.740Z,100709.72
2023-04-16T19:00:12.952Z,100714.44
2023-04-16T19:02:41.041Z,100714.03
2023-04-16T19:05:09.737Z,100716.34
2023-04-16T19:07:37.641Z,100705.97
2023-04-16T19:10:05.838Z,100713.72
2023-04-16T19:12:33.056Z,100719.63
2023-04-16T19:15:00.716Z,100714.00
2023-04-16T19:17:27.749Z,100715.59
2023-04-16T19:19:54.751Z,100714.53
2023-04-16T19:22:21.885Z,100714.88
2023-04-16T19:24:48.922Z,100718.38
2023-04-16T19:27:16.315Z,100716.00
2023-04-16T19:29:43.590Z,100726.41
2023-04-16T19:32:10.813Z,100720.94
2023-04-16T19:34:38.586Z,100710.19
2023-04-16T19:37:05.979Z,100711.31
2023-04-16T19:39:33.271Z,100710.53
2023-04-16T19:42:02.092Z,100707.38
2023-04-16T19:44:29.516Z,100712.06
2023-04-16T19:46:56.627Z,100699.06
2023-04-16T19:49:25.379Z,100709.63
2023-04-16T19:51:52.660Z,100703.31
2023-04-16T19:54:19.748Z,100705.75
2023-04-16T19:56:49.359Z,100704.31
2023-04-16T19:59:16.363Z,100709.13
2023-04-16T20:01:43.517Z,100706.16
2023-04-16T20:04:10.687Z,100701.97
2023-04-16T20:06:37.973Z,100704.34
2023-04-16T20:09:05.018Z,100707.13
2023-04-16T20:11:32.001Z,100701.91
2023-04-16T20:14:00.993Z,100712.06
2023-04-16T20:16:28.116Z,100714.66
2023-04-16T20:18:55.151Z,100711.19
2023-04-16T20:21:22.146Z,100711.88
2023-04-16T20:23:49.273Z,100703.91
2023-04-16T20:26:18.466Z,100709.81
2023-04-16T20:28:46.016Z,100719.69
2023-04-16T20:31:13.307Z,100713.72
2023-04-16T20:33:40.529Z,100722.66
2023-04-16T20:36:08.164Z,100723.84
2023-04-16T20:38:35.768Z,100711.16
2023-04-16T20:41:20.371Z,100718.31
2023-04-16T20:43:50.308Z,100724.88
2023-04-16T20:46:17.865Z,100717.38
2023-04-16T20:48:45.021Z,100720.09
2023-04-16T20:51:12.265Z,100731.06
2023-04-16T20:53:39.250Z,100730.66
2023-04-16T20:56:07.010Z,100726.78
2023-04-16T20:58:34.093Z,100722.34
2023-04-16T21:01:01.087Z,100721.22
2023-04-16T21:03:28.257Z,100725.59
2023-04-16T21:05:55.923Z,100722.09
2023-04-16T21:08:24.300Z,100715.22
2023-04-16T21:10:51.551Z,100723.47
2023-04-16T21:13:21.006Z,100711.97
2023-04-16T21:15:48.207Z,100713.25
2023-04-16T21:18:17.035Z,100709.59
2023-04-16T21:20:44.347Z,100710.16
2023-04-16T21:23:11.332Z,100710.78
2023-04-16T21:25:38.280Z,100703.28
2023-04-16T21:28:06.308Z,100711.53
2023-04-16T21:30:33.411Z,100712.94
2023-04-16T21:33:00.572Z,100709.59
2023-04-16T21:35:27.721Z,100709.94
2023-04-16T21:37:54.800Z,100712.56
2023-04-16T21:40:21.856Z,100718.81
2023-04-16T21:42:49.072Z,100716.88
2023-04-16T21:45:16.276Z,100720.13
2023-04-16T21:47:43.348Z,100724.28
2023-04-16T21:50:11.152Z,100726.38
2023-04-16T21:52:40.713Z,100717.44
2023-04-16T21:55:09.644Z,100725.34
2023-04-16T21:57:36.684Z,100734.28
2023-04-16T22:00:09.189Z,100730.19
2023-04-16T22:02:36.406Z,100722.81
2023-04-16T22:05:06.311Z,100723.31
2023-04-16T22:07:33.340Z,100719.84
2023-04-16T22:10:00.430Z,100723.69
2023-04-16T22:12:28.473Z,100723.38
2023-04-16T22:15:02.390Z,100719.97
2023-04-16T22:17:30.494Z,100712.16
2023-04-16T22:20:00.456Z,100727.56
2023-04-16T22:22:27.447Z,100716.09
2023-04-16T22:24:54.505Z,100728.38
2023-04-16T22:27:22.005Z,100721.72
2023-04-16T22:29:49.021Z,100722.06
2023-04-16T22:32:16.494Z,100726.50
2023-04-16T22:34:43.585Z,100724.47
2023-04-16T22:37:10.893Z,100715.03
2023-04-16T22:39:37.885Z,100726.44
2023-04-16T22:42:04.944Z,100727.88
2023-04-16T22:44:32.001Z,100716.63
2023-04-16T22:46:59.238Z,100718.31
2023-04-16T22:49:26.637Z,100716.56
2023-04-16T22:51:53.638Z,100723.41
2023-04-16T22:54:20.852Z,100721.78
2023-04-16T22:56:48.613Z,100724.78
2023-04-16T22:59:15.714Z,100717.66
2023-04-16T23:01:42.781Z,100725.22
2023-04-16T23:04:09.921Z,100717.34
2023-04-16T23:06:36.959Z,100711.19
2023-04-16T23:09:05.143Z,100715.28
2023-04-16T23:11:32.209Z,100710.50
2023-04-16T23:13:59.287Z,100711.56
2023-04-16T23:16:27.247Z,100709.66
2023-04-16T23:18:54.788Z,100714.06
2023-04-16T23:21:22.988Z,100718.63
2023-04-16T23:23:50.267Z,100719.69
2023-04-16T23:26:17.511Z,100712.75
2023-04-16T23:28:44.592Z,100701.91
2023-04-16T23:31:11.589Z,100707.97
2023-04-16T23:33:38.630Z,100711.00
2023-04-16T23:36:06.118Z,100697.50
2023-04-16T23:38:33.116Z,100699.91
2023-04-16T23:41:00.260Z,100704.22
2023-04-16T23:43:27.235Z,100702.00
2023-04-16T23:45:54.279Z,100708.19
2023-04-16T23:48:21.327Z,100688.78
2023-04-16T23:50:48.360Z,100691.84
2023-04-16T23:53:15.694Z,100693.00
2023-04-16T23:55:42.673Z,100699.88
2023-04-16T23:58:09.624Z,100693.44
